KBBB/BBB METAR and TAF weather

Enter ICAO airport designator
Station Type Date Time Source
KBBB METAR 2020/07/11 21:36 UTC NOAA

KBBB 112136Z AUTO 35013G17KT 10SM CLR 26/16 A2995 RMK AO2


Station Type Date Time Source
KBBB Decoded METAR 2020/07/11 21:36 UTC NOAA

Benson Municipal, MN, United States (KBBB) 45-19N 095-39W
Jul 11, 2020 - 05:36 PM EDT / 2020.07.11 2136 UTC
Wind: from the N (350 degrees) at 15 MPH (13 KT) gusting to 20 MPH (17 KT):0
Visibility: 10 mile(s):0
Sky conditions: clear
Temperature: 78 F (26 C)
Dew Point: 60 F (16 C)
Relative Humidity: 54%
Pressure (altimeter): 29.95 in. Hg (1014 hPa)
ob: KBBB 112136Z AUTO 35013G17KT 10SM CLR 26/16 A2995 RMK AO2
cycle: 21

Station Type Date Time Source
KBBB TAF UTC NOAA

Error!

Example: see airport list